Time;durP1;ratioP1;P1;durP2;ratioP2;P2;SDS_P1;SDS_P2;PMS_P1;PMS_P2;Temp;Humidity;BMP_temperature;BMP_pressure;BME280_temperature;BME280_humidity;BME280_pressure;Samples;Min_cycle;Max_cycle;Signal;HPM_P1;HPM_P2
2023/08/14 00:01:07;;;;;;;29.45;4.53;;;;;;;14.70;100.00;100035.13;4994949;28;20031;-96
2023/08/14 00:03:57;;;;;;;20.00;4.07;;;;;;;14.71;100.00;100034.19;4996472;28;20045;-96
2023/08/14 00:06:25;;;;;;;17.80;3.42;;;;;;;14.68;100.00;100021.44;4992692;28;20026;-96
2023/08/14 00:53:10;;;;;;;19.27;4.47;;;;;;;14.63;100.00;100021.00;5798128;23;20054;-96
2023/08/14 00:56:01;;;;;;;17.23;3.75;;;;;;;14.60;100.00;100021.25;5312549;23;20532;-96
2023/08/14 00:58:29;;;;;;;;;;;;;;;14.52;100.00;100014.06;4992637;28;20123;-96
2023/08/14 01:00:57;;;;;;;17.17;4.05;;;;;;;14.50;100.00;100006.38;4989510;28;19921;-96
2023/08/14 01:03:24;;;;;;;24.27;6.13;;;;;;;14.42;100.00;100002.75;4990156;28;20018;-96
2023/08/14 01:05:49;;;;;;;18.08;4.10;;;;;;;14.41;100.00;100001.94;4966717;28;20055;-96
2023/08/14 01:08:15;;;;;;;24.17;3.80;;;;;;;14.39;100.00;99998.66;4969533;28;20027;-96
2023/08/14 01:11:00;;;;;;;16.52;3.20;;;;;;;14.46;100.00;100007.59;4964817;29;20095;-96
2023/08/14 01:13:30;;;;;;;19.38;3.75;;;;;;;14.38;100.00;99991.78;4967185;28;20015;-96
2023/08/14 01:15:59;;;;;;;13.07;3.35;;;;;;;14.39;100.00;99997.78;4961514;29;20019;-96
2023/08/14 01:18:28;;;;;;;14.82;3.45;;;;;;;14.40;100.00;99989.06;4967471;28;20054;-96
2023/08/14 01:21:11;;;;;;;16.20;3.83;;;;;;;14.41;100.00;99988.97;4970184;29;20039;-96
2023/08/14 01:24:14;;;;;;;11.40;3.60;;;;;;;14.47;100.00;99991.06;4971168;28;20019;-96
2023/08/14 01:26:40;;;;;;;18.10;3.92;;;;;;;14.40;100.00;99974.31;4937379;28;20044;-96
2023/08/14 01:29:06;;;;;;;15.65;3.17;;;;;;;14.42;100.00;99982.00;4968789;28;20030;-96
2023/08/14 01:31:32;;;;;;;14.10;2.95;;;;;;;14.42;100.00;99976.81;4966903;28;20034;-96
2023/08/14 01:33:57;;;;;;;18.83;2.65;;;;;;;14.44;100.00;99965.34;4963950;28;20067;-96
2023/08/14 01:36:42;;;;;;;12.43;2.33;;;;;;;14.43;100.00;99973.25;4961970;29;20142;-96
2023/08/14 01:39:09;;;;;;;9.43;2.42;;;;;;;14.43;100.00;99974.06;4959913;29;20106;-96
2023/08/14 01:41:59;;;;;;;16.65;2.40;;;;;;;14.48;100.00;99976.28;4957994;29;20027;-96
2023/08/14 01:44:26;;;;;;;6.38;2.03;;;;;;;14.45;100.00;99972.16;4956032;28;20031;-96
2023/08/14 01:46:53;;;;;;;9.15;2.13;;;;;;;14.39;100.00;99962.28;4958919;29;20023;-96
2023/08/14 01:49:20;;;;;;;5.85;1.67;;;;;;;14.42;100.00;99975.03;4959243;29;20027;-96
2023/08/14 01:51:46;;;;;;;8.30;2.00;;;;;;;14.33;100.00;99973.16;4960950;29;20382;-96
2023/08/14 01:54:12;;;;;;;4.50;1.20;;;;;;;14.35;100.00;99960.88;4961974;28;20027;-96
2023/08/14 01:56:37;;;;;;;4.57;1.75;;;;;;;14.42;100.00;99962.03;4960477;29;20041;-96
2023/08/14 01:59:03;;;;;;;3.95;0.90;;;;;;;14.43;100.00;99968.06;4961550;29;20031;-96
2023/08/14 02:01:28;;;;;;;2.15;0.80;;;;;;;14.39;100.00;99962.28;4957710;29;20027;-96
2023/08/14 02:03:54;;;;;;;3.35;0.60;;;;;;;14.44;100.00;99964.53;4955608;28;20023;-96
2023/08/14 02:06:19;;;;;;;1.83;0.32;;;;;;;14.47;100.00;99959.88;4954603;29;20039;-96
2023/08/14 02:08:44;;;;;;;8.93;0.63;;;;;;;14.47;100.00;99965.09;4953752;29;20094;-95
2023/08/14 02:11:10;;;;;;;1.98;0.50;;;;;;;14.46;100.00;99962.59;4953082;29;20377;-95
2023/08/14 02:13:35;;;;;;;2.33;0.80;;;;;;;14.51;100.00;99958.69;4953527;28;20019;-95
2023/08/14 02:16:03;;;;;;;3.90;0.70;;;;;;;14.50;100.00;99951.03;4953694;29;20028;-95
2023/08/14 02:18:28;;;;;;;1.33;0.95;;;;;;;14.48;100.00;99956.31;4953394;29;20035;-96
2023/08/14 02:20:54;;;;;;;3.83;0.90;;;;;;;14.49;100.00;99950.22;4954464;28;20434;-96
2023/08/14 02:23:19;;;;;;;4.78;1.27;;;;;;;14.48;100.00;99939.94;4953366;29;20089;-95
2023/08/14 02:25:44;;;;;;;10.73;0.68;;;;;;;14.50;100.00;99938.84;4954292;28;20059;-96
2023/08/14 02:28:11;;;;;;;4.18;0.70;;;;;;;14.50;100.00;99940.63;4953090;29;20121;-95
2023/08/14 02:30:38;;;;;;;1.67;0.73;;;;;;;14.50;100.00;99936.25;4953549;29;20114;-95
2023/08/14 02:33:04;;;;;;;3.50;0.55;;;;;;;14.54;100.00;99934.28;4953421;29;20505;-96
2023/08/14 02:35:29;;;;;;;3.22;0.65;;;;;;;14.54;100.00;99935.09;4953140;28;20019;-95
2023/08/14 02:37:55;;;;;;;1.88;0.70;;;;;;;14.54;100.00;99932.50;4954732;28;20130;-96
2023/08/14 02:40:20;;;;;;;0.93;0.45;;;;;;;14.60;100.00;99927.75;4957067;29;20030;-96
2023/08/14 02:42:45;;;;;;;1.80;0.50;;;;;;;14.59;100.00;99918.31;4956752;29;20385;-96
2023/08/14 02:45:11;;;;;;;1.58;0.70;;;;;;;14.62;100.00;99918.06;4956771;28;20027;-94
2023/08/14 02:47:36;;;;;;;2.53;0.90;;;;;;;14.56;100.00;99906.41;4956634;29;20086;-95
2023/08/14 02:50:02;;;;;;;5.80;1.38;;;;;;;14.53;100.00;99897.09;4956519;29;20038;-96
2023/08/14 02:52:27;;;;;;;7.65;2.38;;;;;;;14.52;100.00;99895.41;4956493;29;20024;-95
2023/08/14 02:54:53;;;;;;;4.05;1.45;;;;;;;14.49;100.00;99895.69;4956666;28;20442;-96
2023/08/14 02:57:18;;;;;;;5.20;2.00;;;;;;;14.47;100.00;99894.97;4956836;29;20072;-94
2023/08/14 02:59:43;;;;;;;4.00;1.60;;;;;;;14.47;100.00;99899.34;4956394;29;20032;-96
2023/08/14 03:02:09;;;;;;;5.97;2.10;;;;;;;14.48;100.00;99891.41;4956639;29;20019;-96
2023/08/14 03:04:34;;;;;;;5.38;1.60;;;;;;;14.45;100.00;99889.06;4956091;28;20034;-95
2023/08/14 03:06:59;;;;;;;7.85;2.03;;;;;;;14.46;100.00;99901.13;4956262;29;20078;-94
2023/08/14 03:09:25;;;;;;;9.90;1.92;;;;;;;14.46;100.00;99884.69;4955924;29;20146;-96
2023/08/14 03:11:50;;;;;;;7.32;2.55;;;;;;;14.43;100.00;99890.97;4956523;29;20019;-95
2023/08/14 03:14:16;;;;;;;5.93;2.00;;;;;;;14.47;100.00;99901.94;4955883;28;20019;-96
2023/08/14 03:16:41;;;;;;;7.10;2.13;;;;;;;14.49;100.00;99900.88;4956052;29;20027;-96
2023/08/14 03:19:06;;;;;;;9.90;2.53;;;;;;;14.46;100.00;99903.72;4956227;29;20061;-95
2023/08/14 03:21:32;;;;;;;9.30;1.83;;;;;;;14.50;100.00;99906.88;4955766;29;20034;-96
2023/08/14 03:23:57;;;;;;;7.43;2.25;;;;;;;14.52;100.00;99899.78;4956027;28;20030;-96
2023/08/14 03:26:23;;;;;;;7.00;2.38;;;;;;;14.52;100.00;99900.59;4956082;29;20390;-96
2023/08/14 03:28:48;;;;;;;8.18;2.30;;;;;;;14.56;100.00;99901.22;4956096;29;20572;-95
2023/08/14 03:31:13;;;;;;;13.70;2.65;;;;;;;14.53;100.00;99902.31;4957264;28;20027;-95
2023/08/14 03:33:39;;;;;;;5.57;1.95;;;;;;;14.53;100.00;99899.72;4955816;28;20039;-95
2023/08/14 03:36:04;;;;;;;5.90;2.00;;;;;;;14.54;100.00;99890.94;4955943;29;20031;-96
2023/08/14 03:38:30;;;;;;;10.60;2.25;;;;;;;14.65;100.00;99897.03;4955696;29;20023;-95
2023/08/14 03:40:56;;;;;;;10.10;2.70;;;;;;;14.54;100.00;99897.94;4955716;29;20054;-96
2023/08/14 03:43:22;;;;;;;11.07;3.28;;;;;;;14.53;100.00;99889.31;4955545;29;20473;-95
2023/08/14 03:45:47;;;;;;;9.60;2.20;;;;;;;14.56;100.00;99877.84;4955478;28;20027;-95
2023/08/14 03:48:13;;;;;;;3.75;1.77;;;;;;;14.60;100.00;99870.63;4955056;28;20038;-95
2023/08/14 03:50:38;;;;;;;8.80;2.50;;;;;;;14.58;100.00;99867.31;4955517;29;20031;-96
2023/08/14 03:53:03;;;;;;;10.82;2.15;;;;;;;14.60;100.00;99868.03;4955738;29;20063;-95
2023/08/14 03:55:29;;;;;;;6.32;2.60;;;;;;;14.65;100.00;99856.28;4955167;28;20038;-95
2023/08/14 03:57:56;;;;;;;10.80;3.10;;;;;;;14.58;100.00;99864.72;4956012;29;20622;-95
2023/08/14 04:00:21;;;;;;;9.20;2.20;;;;;;;14.60;100.00;99863.63;4955846;29;20387;-95
2023/08/14 04:02:47;;;;;;;6.40;1.80;;;;;;;14.62;100.00;99859.16;4955347;29;20035;-95
2023/08/14 04:05:12;;;;;;;6.03;2.35;;;;;;;14.62;100.00;99847.94;4954944;28;20442;-95
2023/08/14 04:07:38;;;;;;;9.18;1.80;;;;;;;14.65;100.00;99845.06;4955187;29;20371;-96
2023/08/14 04:10:03;;;;;;;4.75;1.67;;;;;;;14.67;100.00;99840.59;4955048;29;20078;-95
2023/08/14 04:12:29;;;;;;;7.35;1.90;;;;;;;14.75;100.00;99838.16;4955151;29;20598;-95
2023/08/14 04:14:54;;;;;;;5.82;1.60;;;;;;;14.68;100.00;99839.63;4955272;28;20466;-94
2023/08/14 04:17:19;;;;;;;5.10;1.70;;;;;;;14.70;100.00;99846.34;4954908;29;20114;-95
2023/08/14 04:19:45;;;;;;;6.43;1.60;;;;;;;14.71;100.00;99848.00;4955181;29;20094;-94
2023/08/14 04:22:10;;;;;;;8.10;1.88;;;;;;;14.70;100.00;99848.09;4955091;29;20482;-95
2023/08/14 04:24:36;;;;;;;5.53;1.38;;;;;;;14.71;100.00;99852.38;4954966;28;20062;-95
2023/08/14 04:27:01;;;;;;;4.05;1.92;;;;;;;14.72;100.00;99859.19;4954691;29;20474;-96
2023/08/14 04:29:26;;;;;;;6.18;1.60;;;;;;;14.77;100.00;99847.47;4954869;29;20059;-96
2023/08/14 04:31:52;;;;;;;3.13;1.50;;;;;;;14.77;100.00;99842.25;4954922;29;20054;-95
2023/08/14 04:34:17;;;;;;;6.82;1.70;;;;;;;14.72;100.00;99843.63;4954724;28;20030;-95
2023/08/14 04:36:43;;;;;;;8.38;2.03;;;;;;;14.85;100.00;99844.25;4954688;29;20019;-95
2023/08/14 04:39:09;;;;;;;6.07;2.40;;;;;;;14.87;100.00;99836.28;4954908;29;20162;-96
2023/08/14 04:41:34;;;;;;;8.82;2.58;;;;;;;14.73;100.00;99830.50;4954570;29;20114;-95
2023/08/14 04:44:00;;;;;;;6.35;2.40;;;;;;;14.77;100.00;99837.06;4955612;28;20035;-96
2023/08/14 04:46:29;;;;;;;8.80;2.20;;;;;;;14.81;100.00;99842.03;4955054;29;20034;-96
2023/08/14 04:48:54;;;;;;;12.48;3.15;;;;;;;14.75;100.00;99845.94;4954479;29;20027;-96
2023/08/14 04:51:20;;;;;;;12.93;2.92;;;;;;;14.83;100.00;99834.94;4954446;29;20034;-95
2023/08/14 04:53:45;;;;;;;6.78;2.75;;;;;;;14.81;100.00;99823.84;4954096;28;20034;-95
2023/08/14 04:56:11;;;;;;;15.25;2.92;;;;;;;14.83;100.00;99827.94;4954370;29;20087;-95
2023/08/14 04:58:36;;;;;;;18.05;4.15;;;;;;;14.77;100.00;99821.47;4954433;29;20035;-96
2023/08/14 05:01:02;;;;;;;16.15;3.80;;;;;;;14.77;100.00;99820.66;4953585;28;20042;-94
2023/08/14 05:03:27;;;;;;;14.60;3.92;;;;;;;14.77;100.00;99812.88;4954557;29;20023;-95
2023/08/14 05:05:52;;;;;;;17.83;5.25;;;;;;;14.81;100.00;99811.66;4954294;28;20058;-95
2023/08/14 05:08:18;;;;;;;16.95;4.25;;;;;;;14.85;100.00;99815.66;4953981;29;20035;-95
2023/08/14 05:10:49;;;;;;;19.45;4.28;;;;;;;14.84;100.00;99811.41;4954053;29;20027;-95
2023/08/14 05:13:15;;;;;;;23.90;4.43;;;;;;;14.83;100.00;99803.75;4953891;29;20031;-95
2023/08/14 05:15:40;;;;;;;25.40;5.45;;;;;;;14.88;100.00;99802.41;4953830;28;20036;-95
2023/08/14 05:18:06;;;;;;;20.38;4.13;;;;;;;14.88;100.00;99804.19;4954979;28;20026;-94
2023/08/14 05:20:33;;;;;;;18.23;4.55;;;;;;;14.90;100.00;99777.09;4953990;29;20499;-95
2023/08/14 05:22:58;;;;;;;15.70;4.07;;;;;;;14.92;100.00;99787.34;4953805;29;20386;-94
2023/08/14 05:25:24;;;;;;;16.05;3.88;;;;;;;14.88;100.00;99792.00;4954072;28;20086;-95
2023/08/14 05:27:49;;;;;;;28.10;4.35;;;;;;;14.89;100.00;99796.22;4953881;29;20030;-95
2023/08/14 05:30:14;;;;;;;17.35;3.75;;;;;;;14.90;100.00;99800.50;4954763;28;20027;-95
2023/08/14 05:32:41;;;;;;;16.23;3.40;;;;;;;14.98;100.00;99792.84;4953555;29;20038;-95
2023/08/14 05:35:07;;;;;;;13.45;3.90;;;;;;;14.97;100.00;99791.22;4953527;28;20564;-94
2023/08/14 05:37:32;;;;;;;10.07;3.17;;;;;;;14.95;100.00;99785.31;4953620;29;20055;-94
2023/08/14 05:39:57;;;;;;;19.30;3.45;;;;;;;14.94;100.00;99775.88;4953545;29;20074;-94
2023/08/14 05:42:23;;;;;;;13.57;4.07;;;;;;;14.95;100.00;99772.34;4953514;29;20020;-95
2023/08/14 05:44:48;;;;;;;16.10;3.13;;;;;;;15.00;100.00;99771.94;4953216;28;20027;-95
2023/08/14 05:47:14;;;;;;;12.43;3.17;;;;;;;15.08;100.00;99771.28;4954535;28;20035;-95
2023/08/14 05:49:39;;;;;;;9.68;2.60;;;;;;;15.04;100.00;99769.88;4953327;29;20030;-96
2023/08/14 05:52:04;;;;;;;13.40;2.75;;;;;;;14.98;100.00;99771.25;4953293;29;20497;-95
2023/08/14 05:54:30;;;;;;;14.18;2.75;;;;;;;14.97;100.00;99773.03;4953406;28;20131;-94
2023/08/14 05:56:55;;;;;;;10.70;2.83;;;;;;;14.97;100.00;99772.19;4953214;29;20168;-96
2023/08/14 05:59:21;;;;;;;7.00;2.17;;;;;;;15.05;100.00;99769.75;4953708;29;20382;-96
2023/08/14 06:01:46;;;;;;;7.55;2.30;;;;;;;14.98;100.00;99768.66;4953962;29;20054;-95
2023/08/14 06:04:12;;;;;;;13.57;3.20;;;;;;;14.96;100.00;99771.38;4953261;28;20106;-96
2023/08/14 06:06:37;;;;;;;8.25;2.22;;;;;;;14.99;100.00;99765.91;4953482;29;20034;-95
2023/08/14 06:09:03;;;;;;;15.00;2.75;;;;;;;15.02;100.00;99771.78;4953579;29;20067;-95
2023/08/14 06:11:28;;;;;;;8.63;2.63;;;;;;;15.02;100.00;99772.63;4954664;28;20117;-95
2023/08/14 06:13:54;;;;;;;7.60;2.30;;;;;;;15.07;100.00;99782.59;4957201;28;20031;-95
2023/08/14 06:16:19;;;;;;;6.93;2.22;;;;;;;15.06;100.00;99778.38;4956945;29;20023;-96
2023/08/14 06:18:44;;;;;;;7.90;2.50;;;;;;;15.09;100.00;99778.09;4957290;29;20047;-95
2023/08/14 06:21:10;;;;;;;10.18;3.47;;;;;;;15.13;100.00;99779.47;4956677;29;20027;-94
2023/08/14 06:23:35;;;;;;;9.73;2.58;;;;;;;15.22;100.00;99781.28;4956764;28;20094;-95
2023/08/14 06:26:01;;;;;;;9.23;2.30;;;;;;;15.19;100.00;99782.38;4956993;29;20024;-95
2023/08/14 06:28:26;;;;;;;5.95;2.28;;;;;;;15.16;100.00;99774.00;4958022;28;20118;-95
2023/08/14 06:30:51;;;;;;;8.20;2.25;;;;;;;15.16;100.00;99774.00;4956635;29;20470;-95
2023/08/14 06:33:17;;;;;;;8.85;2.28;;;;;;;15.26;100.00;99769.66;4956996;29;20019;-95
2023/08/14 06:35:42;;;;;;;16.25;3.03;;;;;;;15.24;100.00;99770.75;4956575;28;20045;-95
2023/08/14 06:38:08;;;;;;;7.90;2.00;;;;;;;15.22;100.00;99763.09;4957856;28;20495;-95
2023/08/14 06:40:33;;;;;;;7.15;1.85;;;;;;;15.17;100.00;99762.69;4956478;29;20023;-95
2023/08/14 06:42:59;;;;;;;7.65;2.13;;;;;;;15.16;100.00;99763.63;4956576;29;20024;-95
2023/08/14 06:45:24;;;;;;;7.93;2.20;;;;;;;15.15;100.00;99759.38;4956966;28;20553;-96
2023/08/14 06:47:49;;;;;;;5.90;2.00;;;;;;;15.20;100.00;99763.22;4956549;29;20031;-94
2023/08/14 06:50:15;;;;;;;6.13;1.83;;;;;;;15.24;100.00;99766.38;4956437;29;20027;-94
2023/08/14 06:52:40;;;;;;;12.88;2.10;;;;;;;15.41;100.00;99768.31;4956362;29;20054;-95
2023/08/14 06:55:06;;;;;;;13.20;2.25;;;;;;;15.32;100.00;99773.50;4956407;28;20034;-95
2023/08/14 06:57:31;;;;;;;6.38;1.77;;;;;;;15.26;100.00;99774.84;4956284;29;20019;-94
2023/08/14 06:59:57;;;;;;;5.63;1.98;;;;;;;15.28;100.00;99759.13;4956583;29;20110;-94
2023/08/14 07:02:22;;;;;;;7.53;1.50;;;;;;;15.30;100.00;99768.44;4956192;29;20090;-94
2023/08/14 07:04:47;;;;;;;7.65;1.80;;;;;;;15.30;100.00;99768.44;4956410;28;20448;-95
2023/08/14 07:07:13;;;;;;;6.10;1.50;;;;;;;15.28;100.00;99762.53;4956042;29;20030;-94
2023/08/14 07:09:38;;;;;;;7.50;1.73;;;;;;;15.34;100.00;99762.00;4956198;29;20023;-95
2023/08/14 07:12:04;;;;;;;6.43;1.50;;;;;;;15.31;100.00;99764.84;4956464;29;20026;-95
2023/08/14 07:14:31;;;;;;;6.32;1.58;;;;;;;15.34;100.00;99753.41;4956092;28;20023;-95
2023/08/14 07:16:56;;;;;;;3.83;1.10;;;;;;;15.38;100.00;99768.56;4956460;29;20023;-95
2023/08/14 07:19:22;;;;;;;3.85;0.93;;;;;;;15.50;100.00;99758.03;4957000;28;20034;-95
2023/08/14 07:21:47;;;;;;;3.67;0.88;;;;;;;15.45;100.00;99768.03;4956071;29;20030;-96
2023/08/14 07:24:12;;;;;;;3.58;1.30;;;;;;;15.38;100.00;99755.56;4955338;28;20066;-95
2023/08/14 07:26:39;;;;;;;4.63;0.95;;;;;;;15.47;100.00;99755.72;4956037;29;20402;-95
2023/08/14 07:29:04;;;;;;;5.30;1.45;;;;;;;15.46;100.00;99748.88;4956039;29;20023;-94
2023/08/14 07:31:30;;;;;;;2.67;1.00;;;;;;;15.37;100.00;99745.31;4957880;29;20503;-96
2023/08/14 07:33:56;;;;;;;5.97;0.90;;;;;;;15.35;100.00;99753.25;4956036;28;20090;-95
2023/08/14 07:36:21;;;;;;;3.92;0.80;;;;;;;15.46;100.00;99751.47;4955521;29;20051;-95
2023/08/14 07:38:46;;;;;;;1.40;0.63;;;;;;;15.45;100.00;99753.25;4955534;29;20023;-96
2023/08/14 07:41:12;;;;;;;2.13;0.80;;;;;;;15.55;100.00;99745.44;4955617;29;20035;-96
2023/08/14 07:43:37;;;;;;;4.70;1.48;;;;;;;15.50;100.00;99742.44;4955749;28;20033;-96
2023/08/14 07:46:02;;;;;;;1.63;0.77;;;;;;;15.54;100.00;99741.22;4956860;28;20051;-95
2023/08/14 07:48:28;;;;;;;3.03;1.20;;;;;;;15.51;100.00;99741.47;4955934;29;20051;-96
2023/08/14 07:50:54;;;;;;;3.03;0.88;;;;;;;15.57;100.00;99746.94;4955443;29;20071;-96
2023/08/14 07:53:19;;;;;;;4.15;1.40;;;;;;;15.56;100.00;99745.31;4955387;29;20027;-96
2023/08/14 07:55:45;;;;;;;2.80;1.05;;;;;;;15.62;100.00;99743.94;4955785;28;20038;-96
2023/08/14 07:58:10;;;;;;;1.33;1.00;;;;;;;15.69;100.00;99745.03;4955588;29;20034;-96
2023/08/14 08:00:36;;;;;;;1.55;0.40;;;;;;;15.76;100.00;99746.16;4956828;28;20034;-96
2023/08/14 08:03:01;;;;;;;2.38;0.68;;;;;;;15.71;100.00;99747.53;4955504;29;20055;-95
2023/08/14 08:05:26;;;;;;;2.22;0.90;;;;;;;15.74;100.00;99747.25;4955327;28;20050;-96
2023/08/14 08:07:52;;;;;;;3.70;0.82;;;;;;;15.76;100.00;99740.97;4955227;29;20119;-96
2023/08/14 08:10:17;;;;;;;5.20;1.13;;;;;;;15.76;100.00;99746.16;4955469;29;20051;-95
2023/08/14 08:12:42;;;;;;;4.88;1.35;;;;;;;15.75;100.00;99752.34;4956184;28;20059;-96
2023/08/14 08:15:09;;;;;;;5.50;1.60;;;;;;;15.75;100.00;99739.31;4955217;28;20057;-95
2023/08/14 08:17:35;;;;;;;7.47;2.00;;;;;;;15.79;100.00;99738.06;4955369;29;20028;-95
2023/08/14 08:20:00;;;;;;;14.95;3.10;;;;;;;15.88;100.00;99738.22;4954652;29;20020;-95
2023/08/14 08:22:26;;;;;;;15.52;4.05;;;;;;;15.86;100.00;99745.34;4954916;29;20051;-95
2023/08/14 08:24:51;;;;;;;22.58;5.78;;;;;;;15.78;100.00;99728.63;4955001;28;20445;-95
2023/08/14 08:27:16;;;;;;;18.67;5.43;;;;;;;15.83;100.00;99726.44;4955038;29;20030;-96
2023/08/14 08:29:42;;;;;;;24.98;5.85;;;;;;;15.83;100.00;99718.63;4954714;29;20023;-95
2023/08/14 08:32:08;;;;;;;31.85;5.72;;;;;;;15.90;100.00;99731.06;4955128;29;20045;-95
2023/08/14 08:34:33;;;;;;;26.77;5.68;;;;;;;15.90;100.00;99724.09;4954601;28;20028;-95
2023/08/14 08:36:59;;;;;;;28.88;6.53;;;;;;;15.90;100.00;99725.84;4954755;29;20453;-96
2023/08/14 08:39:24;;;;;;;30.17;6.25;;;;;;;16.01;100.00;99728.31;4954538;29;20058;-95
2023/08/14 08:41:51;;;;;;;29.30;6.93;;;;;;;15.96;100.00;99731.34;4954635;29;20030;-96
2023/08/14 08:44:30;;;;;;;32.38;6.72;;;;;;;15.96;100.00;99726.13;4954873;28;20056;-95
2023/08/14 08:47:06;;;;;;;37.08;7.15;;;;;;;15.91;100.00;99722.31;4954460;29;20058;-96
2023/08/14 08:49:32;;;;;;;27.60;7.05;;;;;;;16.05;100.00;99714.06;4955008;29;20027;-95
2023/08/14 08:51:58;;;;;;;37.17;7.10;;;;;;;16.10;100.00;99717.06;4954717;29;20034;-95
2023/08/14 08:54:25;;;;;;;30.85;6.85;;;;;;;16.21;100.00;99716.88;4954743;28;20492;-95
2023/08/14 08:56:51;;;;;;;38.97;6.93;;;;;;;16.23;100.00;99712.34;4954253;29;20039;-95
2023/08/14 08:59:17;;;;;;;30.67;5.72;;;;;;;16.33;100.00;99711.50;4954886;29;20020;-96
2023/08/14 09:01:43;;;;;;;38.22;6.88;;;;;;;16.36;100.00;99716.41;4954713;29;20034;-95
2023/08/14 09:04:08;;;;;;;28.90;6.25;;;;;;;16.40;100.00;99715.19;4954746;28;20110;-96
2023/08/14 09:06:34;;;;;;;26.80;5.13;;;;;;;16.46;100.00;99717.22;4954036;29;20020;-95
2023/08/14 09:09:00;;;;;;;24.83;5.70;;;;;;;16.53;100.00;99709.63;4954264;29;20078;-95
2023/08/14 09:11:25;;;;;;;29.00;6.13;;;;;;;16.54;100.00;99719.91;4955136;28;20059;-96
2023/08/14 09:13:51;;;;;;;25.25;5.43;;;;;;;16.45;100.00;99718.97;4954553;28;20054;-95
2023/08/14 09:16:17;;;;;;;23.13;4.30;;;;;;;16.61;100.00;99725.38;4953830;29;20089;-95
2023/08/14 09:18:43;;;;;;;21.77;4.68;;;;;;;16.57;100.00;99716.19;4955434;29;20027;-96
2023/08/14 09:21:10;;;;;;;21.02;4.68;;;;;;;16.64;100.00;99718.09;4954957;28;20031;-95
2023/08/14 09:23:37;;;;;;;22.05;4.32;;;;;;;16.72;100.00;99716.53;4953917;28;20114;-96
2023/08/14 09:26:03;;;;;;;22.90;4.50;;;;;;;16.86;100.00;99718.69;4955865;28;20063;-96
2023/08/14 09:28:28;;;;;;;23.55;5.50;;;;;;;17.02;100.00;99702.38;4954255;29;20058;-95
2023/08/14 09:31:04;;;;;;;14.10;3.67;;;;;;;17.06;100.00;99704.56;4955505;28;20038;-95
2023/08/14 09:33:29;;;;;;;19.42;4.07;;;;;;;16.99;100.00;99693.06;4954061;29;20031;-95
2023/08/14 09:35:57;;;;;;;24.92;4.82;;;;;;;16.92;100.00;99697.22;4954292;29;20034;-95
2023/08/14 09:38:23;;;;;;;18.83;5.35;;;;;;;16.93;100.00;99691.06;4954035;29;20027;-96
2023/08/14 09:40:48;;;;;;;17.10;4.00;;;;;;;16.96;100.00;99684.75;4954951;29;20023;-95
2023/08/14 09:43:14;;;;;;;24.60;4.40;;;;;;;16.90;100.00;99699.19;4954143;29;20023;-95
2023/08/14 09:45:39;;;;;;;13.45;3.50;;;;;;;16.94;100.00;99694.50;4954770;28;20038;-95
2023/08/14 09:48:05;;;;;;;19.70;4.18;;;;;;;17.11;100.00;99689.28;4953870;29;20039;-96
2023/08/14 09:50:31;;;;;;;18.98;4.10;;;;;;;17.09;100.00;99682.56;4954266;29;20031;-96
2023/08/14 09:52:59;;;;;;;15.40;3.75;;;;;;;17.12;100.00;99684.91;4953803;29;20146;-96
2023/08/14 09:55:28;;;;;;;16.92;3.78;;;;;;;17.08;100.00;99686.97;4953993;28;20027;-96
2023/08/14 09:57:57;;;;;;;14.18;4.07;;;;;;;16.95;100.00;99686.53;4954014;29;20027;-95
2023/08/14 10:00:29;;;;;;;20.88;4.55;;;;;;;16.93;100.00;99693.69;4954170;29;20023;-96
2023/08/14 10:02:55;;;;;;;;;;;;;;;16.87;100.00;99700.31;4954463;29;20512;-95
2023/08/14 10:05:21;;;;;;;15.88;3.72;;;;;;;16.80;100.00;99687.97;4953757;28;19914;-96
2023/08/14 10:07:48;;;;;;;22.75;4.22;;;;;;;16.77;100.00;99691.66;4953859;29;20038;-96
2023/08/14 10:10:14;;;;;;;18.40;5.32;;;;;;;16.73;100.00;99686.91;4954160;29;20490;-95
2023/08/14 10:12:46;;;;;;;17.45;3.58;;;;;;;16.81;100.00;99689.63;4953619;29;20054;-96
2023/08/14 10:15:16;;;;;;;13.32;3.13;;;;;;;16.89;100.00;99687.09;4953831;28;20458;-96
2023/08/14 10:17:48;;;;;;;18.35;3.90;;;;;;;16.79;100.00;99683.75;4953862;29;20020;-95
2023/08/14 10:20:17;;;;;;;14.32;3.67;;;;;;;16.87;100.00;99681.22;4953625;29;20027;-95
2023/08/14 10:22:43;;;;;;;13.82;3.17;;;;;;;16.81;100.00;99674.00;4954043;29;20031;-96
2023/08/14 10:25:11;;;;;;;13.63;3.13;;;;;;;16.81;100.00;99666.19;4956215;28;20024;-96
2023/08/14 10:27:36;;;;;;;13.63;3.17;;;;;;;16.82;100.00;99680.84;4953579;29;20035;-94
2023/08/14 10:30:02;;;;;;;13.88;4.13;;;;;;;16.87;100.00;99678.63;4953272;29;20038;-96
2023/08/14 10:32:28;;;;;;;15.27;3.70;;;;;;;16.90;100.00;99667.91;4954677;28;20031;-95
2023/08/14 10:34:55;;;;;;;19.17;3.17;;;;;;;16.96;100.00;99656.88;4953632;28;20047;-95
2023/08/14 10:37:40;;;;;;;14.05;3.28;;;;;;;17.12;100.00;99656.22;4953524;29;20054;-96
2023/08/14 10:40:17;;;;;;;19.30;3.15;;;;;;;17.16;100.00;99659.34;4954234;29;20515;-95
2023/08/14 10:42:57;;;;;;;10.30;2.75;;;;;;;17.10;100.00;99668.59;4953922;29;20034;-95
2023/08/14 10:45:27;;;;;;;15.48;4.07;;;;;;;17.09;100.00;99674.75;4953250;28;20027;-95
2023/08/14 10:47:53;;;;;;;18.80;3.08;;;;;;;17.06;100.00;99678.47;4953474;29;20034;-96
2023/08/14 10:50:29;;;;;;;14.13;2.88;;;;;;;17.09;100.00;99657.34;4953902;29;20474;-95
2023/08/14 10:52:56;;;;;;;13.48;2.97;;;;;;;17.17;100.00;99668.78;4953672;29;20027;-96
2023/08/14 10:55:41;;;;;;;10.18;2.63;;;;;;;17.29;100.00;99667.63;4953926;28;20034;-96
2023/08/14 10:58:28;;;;;;;19.23;3.72;;;;;;;17.37;100.00;99670.28;4954364;28;20052;-96
2023/08/14 11:00:54;;;;;;;11.45;2.60;;;;;;;17.30;100.00;99658.81;4957352;29;20031;-95
2023/08/14 11:03:19;;;;;;;22.85;3.65;;;;;;;17.43;100.00;99653.19;4957868;29;20027;-96
2023/08/14 11:05:44;;;;;;;14.38;3.20;;;;;;;17.51;100.00;99656.69;4957869;28;20027;-96
2023/08/14 11:08:12;;;;;;;11.00;2.80;;;;;;;17.57;100.00;99672.72;4973582;28;20031;-96
2023/08/14 11:10:38;;;;;;;14.20;2.88;;;;;;;17.57;100.00;99680.53;4957380;29;20077;-96
2023/08/14 11:13:06;;;;;;;16.30;3.75;;;;;;;17.38;100.00;99665.88;4957178;29;20031;-96
2023/08/14 11:15:33;;;;;;;18.02;3.95;;;;;;;17.31;100.00;99660.44;4956762;28;20023;-95
2023/08/14 11:17:59;;;;;;;20.02;3.50;;;;;;;17.27;100.00;99659.13;4957398;29;20023;-95
2023/08/14 11:20:31;;;;;;;11.85;3.05;;;;;;;17.27;100.00;99664.34;4957149;29;20035;-96
2023/08/14 11:22:58;;;;;;;14.25;2.95;;;;;;;17.15;100.00;99666.34;4957000;29;20034;-96
2023/08/14 11:25:24;;;;;;;17.40;3.20;;;;;;;17.13;100.00;99657.03;4957008;28;20024;-96
2023/08/14 11:27:51;;;;;;;16.00;3.28;;;;;;;17.15;100.00;99655.09;4957612;29;20166;-96
2023/08/14 11:30:21;;;;;;;11.85;3.40;;;;;;;17.24;100.00;99646.34;4957330;29;20091;-96
2023/08/14 11:32:46;;;;;;;13.65;3.05;;;;;;;17.30;100.00;99651.00;4957384;29;20470;-96
2023/08/14 11:35:12;;;;;;;16.35;4.18;;;;;;;17.44;100.00;99655.66;4957490;28;20041;-96
2023/08/14 11:37:38;;;;;;;11.07;3.03;;;;;;;17.53;100.00;99664.34;4956460;29;20023;-96
2023/08/14 11:40:05;;;;;;;9.90;3.22;;;;;;;17.70;100.00;99660.91;4958133;29;20023;-96
2023/08/14 11:42:34;;;;;;;15.25;3.00;;;;;;;17.83;100.00;99664.94;4957837;29;20034;-96
2023/08/14 11:45:03;;;;;;;8.30;2.47;;;;;;;18.24;100.00;99663.38;4960260;28;20034;-96
2023/08/14 11:47:33;;;;;;;10.90;2.88;;;;;;;18.38;100.00;99660.13;4957927;29;20086;-96
2023/08/14 11:49:59;;;;;;;12.05;2.40;;;;;;;18.76;100.00;99668.47;4957308;29;20490;-96
2023/08/14 11:52:28;;;;;;;12.93;2.65;;;;;;;18.95;100.00;99656.09;4956208;29;20027;-96
2023/08/14 11:54:57;;;;;;;9.77;2.38;;;;;;;19.38;100.00;99656.75;4956482;28;20035;-95
2023/08/14 11:57:25;;;;;;;15.52;2.67;;;;;;;19.32;100.00;99660.84;4956992;29;20027;-96
2023/08/14 11:59:52;;;;;;;11.48;2.92;;;;;;;19.46;100.00;99662.00;4956998;29;20082;-95
2023/08/14 12:02:19;;;;;;;7.45;1.60;;;;;;;19.54;100.00;99661.16;4956636;29;20030;-96
2023/08/14 12:04:45;;;;;;;14.88;2.60;;;;;;;19.56;100.00;99665.25;4956024;28;20389;-96